createdAt,value
2022-09-22T03:55:09.288Z,85.88
2022-09-22T03:58:32.059Z,86.55
2022-09-22T04:01:58.481Z,86.81
2022-09-22T04:05:21.251Z,87.14
2022-09-22T04:08:43.738Z,86.73
2022-09-22T04:12:09.627Z,86.97
2022-09-22T04:15:33.227Z,86.89
2022-09-22T04:19:09.993Z,86.55
2022-09-22T04:22:32.702Z,86.64
2022-09-22T04:25:55.457Z,87.24
2022-09-22T04:29:18.142Z,87.34
2022-09-22T04:32:40.754Z,87.41
2022-09-22T04:36:23.414Z,87.07
2022-09-22T04:39:46.229Z,87.09
2022-09-22T04:43:09.802Z,87.14
2022-09-22T04:46:36.001Z,87.14
2022-09-22T04:49:59.229Z,87.38
2022-09-22T04:53:21.869Z,87.77
2022-09-22T04:56:44.992Z,88.13
2022-09-22T05:00:09.331Z,87.66
2022-09-22T05:03:32.423Z,87.62
2022-09-22T05:06:55.116Z,87.66
2022-09-22T05:10:17.906Z,87.50
2022-09-22T05:13:42.625Z,87.39
2022-09-22T05:17:06.080Z,87.41
2022-09-22T05:20:31.433Z,87.84
2022-09-22T05:23:55.539Z,87.80
2022-09-22T05:27:18.104Z,87.68
2022-09-22T05:30:44.014Z,87.38
2022-09-22T05:34:08.990Z,87.19
2022-09-22T05:37:37.058Z,87.02
2022-09-22T05:41:03.334Z,86.50
2022-09-22T05:44:26.189Z,86.71
2022-09-22T05:47:48.962Z,86.18
2022-09-22T05:51:11.741Z,85.10
2022-09-22T05:54:34.461Z,83.90
2022-09-22T05:57:57.767Z,83.54
2022-09-22T06:01:20.336Z,83.16
2022-09-22T06:04:43.006Z,82.98
2022-09-22T06:08:06.028Z,82.36
2022-09-22T06:11:28.596Z,81.28
2022-09-22T06:14:51.587Z,81.54
2022-09-22T06:18:15.441Z,81.28
2022-09-22T06:21:38.622Z,80.28
2022-09-22T06:25:01.694Z,80.33
2022-09-22T06:28:29.359Z,80.01
2022-09-22T06:32:01.295Z,79.21
2022-09-22T06:35:24.142Z,78.00
2022-09-22T06:38:46.533Z,77.89
2022-09-22T06:42:10.371Z,77.95
2022-09-22T06:45:34.280Z,76.79
2022-09-22T06:48:57.590Z,77.57
2022-09-22T06:52:21.057Z,78.22
2022-09-22T06:55:44.070Z,76.90
2022-09-22T06:59:10.672Z,76.79
2022-09-22T07:02:35.562Z,75.55
2022-09-22T07:06:00.430Z,74.95
2022-09-22T07:09:23.104Z,75.44
2022-09-22T07:12:46.326Z,75.02
2022-09-22T07:16:09.942Z,75.08
2022-09-22T07:19:35.854Z,74.91
2022-09-22T07:22:59.984Z,72.92
2022-09-22T07:26:25.821Z,73.23
2022-09-22T07:29:48.760Z,73.87
2022-09-22T07:33:11.482Z,73.02
2022-09-22T07:36:36.372Z,72.49
2022-09-22T07:40:00.258Z,71.05
2022-09-22T07:43:23.091Z,70.50
2022-09-22T07:46:45.936Z,70.81
2022-09-22T07:50:09.188Z,69.39
2022-09-22T07:53:32.393Z,69.43
2022-09-22T07:56:57.597Z,69.46
2022-09-22T08:00:20.236Z,69.05
2022-09-22T08:03:43.512Z,70.27
2022-09-22T08:07:05.944Z,70.44
2022-09-22T08:10:28.554Z,69.44
2022-09-22T08:13:52.889Z,68.63
2022-09-22T08:17:15.393Z,68.35
2022-09-22T08:20:44.912Z,68.38
2022-09-22T08:24:09.146Z,68.82
2022-09-22T08:27:32.875Z,69.02
2022-09-22T08:30:55.436Z,68.04
2022-09-22T08:34:18.278Z,68.11
2022-09-22T08:37:43.167Z,68.75
2022-09-22T08:41:12.559Z,68.49
2022-09-22T08:44:37.602Z,69.18
2022-09-22T08:48:21.729Z,67.62
2022-09-22T08:51:55.109Z,67.75
2022-09-22T08:55:20.866Z,68.75
2022-09-22T08:58:48.330Z,67.22
2022-09-22T09:02:36.998Z,67.09
2022-09-22T09:06:05.337Z,66.06
2022-09-22T09:09:36.067Z,66.06
2022-09-22T09:13:08.897Z,65.91
2022-09-22T09:16:41.506Z,64.22
2022-09-22T09:20:12.223Z,64.91
2022-09-22T09:27:25.158Z,62.17
2022-09-22T09:30:50.595Z,62.65
2022-09-22T09:34:16.208Z,62.27
2022-09-22T09:37:39.212Z,62.46
2022-09-22T09:41:11.263Z,63.78
2022-09-22T09:44:39.392Z,60.53
2022-09-22T09:48:06.919Z,59.31
2022-09-22T09:51:29.608Z,58.57
2022-09-22T09:55:00.510Z,60.11
2022-09-22T09:58:41.783Z,60.75
2022-09-22T10:02:04.363Z,62.03
2022-09-22T10:05:26.974Z,62.62
2022-09-22T10:08:50.853Z,62.29
2022-09-22T10:12:24.625Z,61.83
2022-09-22T10:15:59.630Z,59.86
2022-09-22T10:19:25.399Z,54.76
2022-09-22T10:22:47.859Z,56.03
2022-09-22T10:26:15.015Z,56.49
2022-09-22T10:29:41.578Z,56.48
2022-09-22T10:33:05.722Z,55.81
2022-09-22T10:36:32.623Z,55.82
2022-09-22T10:39:58.613Z,56.09
2022-09-22T10:43:30.656Z,57.13
2022-09-22T10:47:05.593Z,56.66
2022-09-22T10:50:35.999Z,56.69
2022-09-22T10:54:09.230Z,55.33
2022-09-22T10:57:40.355Z,53.23
2022-09-22T11:01:30.911Z,55.66
2022-09-22T11:04:58.660Z,54.78
2022-09-22T11:08:40.424Z,52.07
2022-09-22T11:12:27.506Z,51.68
2022-09-22T11:16:04.231Z,52.67
2022-09-22T11:19:36.764Z,53.39
2022-09-22T11:23:17.115Z,53.13
2022-09-22T11:26:45.698Z,52.06
2022-09-22T11:30:16.169Z,52.85
2022-09-22T11:33:51.242Z,53.96
2022-09-22T11:37:26.234Z,54.77
2022-09-22T11:41:01.168Z,54.47
2022-09-22T11:44:36.203Z,54.43
2022-09-22T11:48:08.498Z,54.59
2022-09-22T11:51:44.985Z,54.31
2022-09-22T11:55:14.499Z,54.88
2022-09-22T11:58:40.421Z,54.31
2022-09-22T12:02:08.563Z,53.47
2022-09-22T12:05:34.541Z,52.01
2022-09-22T12:08:59.799Z,50.68
2022-09-22T12:12:23.887Z,51.07
2022-09-22T12:15:52.310Z,48.49
2022-09-22T12:19:20.700Z,47.44
2022-09-22T12:22:57.781Z,49.10
2022-09-22T12:26:26.767Z,48.38
2022-09-22T12:30:00.320Z,48.09
2022-09-22T12:33:23.309Z,46.83
2022-09-22T12:36:47.151Z,48.18
2022-09-22T12:40:22.897Z,48.95
2022-09-22T12:43:46.804Z,48.52
2022-09-22T12:47:19.153Z,49.02
2022-09-22T12:50:42.384Z,49.31
2022-09-22T12:54:19.102Z,48.74
2022-09-22T12:57:45.188Z,46.72
2022-09-22T13:01:28.487Z,46.17
2022-09-22T13:05:08.907Z,46.23
2022-09-22T13:08:45.507Z,46.75
2022-09-22T13:12:22.637Z,46.86
2022-09-22T13:16:02.290Z,47.04
2022-09-22T13:19:24.788Z,47.04
2022-09-22T13:22:47.492Z,47.50
2022-09-22T13:26:12.365Z,47.87
2022-09-22T13:29:35.827Z,47.83
2022-09-22T13:32:58.691Z,47.57
2022-09-22T13:36:23.091Z,48.19
2022-09-22T13:39:47.883Z,48.89
2022-09-22T13:43:11.675Z,49.28
2022-09-22T13:46:36.505Z,48.99
2022-09-22T13:50:03.101Z,48.48
2022-09-22T13:53:26.171Z,48.17
2022-09-22T13:56:48.963Z,48.16
2022-09-22T14:00:19.264Z,47.87
2022-09-22T14:03:42.576Z,48.79
2022-09-22T14:07:09.292Z,48.49
2022-09-22T14:10:32.333Z,48.20
2022-09-22T14:13:59.154Z,48.81
2022-09-22T14:17:23.877Z,49.15
2022-09-22T14:20:46.718Z,48.37
2022-09-22T14:24:12.389Z,48.89
2022-09-22T14:27:35.999Z,49.13
2022-09-22T14:30:58.802Z,49.71
2022-09-22T14:34:26.481Z,48.95
2022-09-22T14:37:51.165Z,49.32
2022-09-22T14:41:21.345Z,47.79
2022-09-22T14:44:45.078Z,48.17
2022-09-22T14:48:16.483Z,48.27
2022-09-22T14:51:45.204Z,47.87
2022-09-22T14:55:15.071Z,48.39
2022-09-22T14:58:40.576Z,49.15
2022-09-22T15:02:22.074Z,49.30
2022-09-22T15:05:45.504Z,50.04
2022-09-22T15:09:22.392Z,50.13
2022-09-22T15:12:49.375Z,50.73
2022-09-22T15:16:30.432Z,50.70
2022-09-22T15:19:55.589Z,50.91
2022-09-22T15:23:20.398Z,51.03
2022-09-22T15:26:43.610Z,51.35
2022-09-22T15:30:08.360Z,51.61
2022-09-22T15:33:31.079Z,51.62
2022-09-22T15:36:55.309Z,51.79
2022-09-22T15:40:20.559Z,52.12
2022-09-22T15:43:44.532Z,52.16
2022-09-22T15:47:15.939Z,52.36
2022-09-22T15:50:38.732Z,52.36
2022-09-22T15:54:01.356Z,52.47
2022-09-22T15:57:24.308Z,52.57
2022-09-22T16:00:47.071Z,52.50
2022-09-22T16:04:09.736Z,52.55
2022-09-22T16:07:36.832Z,52.85
2022-09-22T16:11:05.052Z,53.06
2022-09-22T16:14:28.548Z,53.37
2022-09-22T16:17:51.733Z,53.49
2022-09-22T16:21:18.418Z,53.78
2022-09-22T16:24:42.714Z,53.90
2022-09-22T16:28:05.763Z,54.17
2022-09-22T16:31:28.357Z,54.48
2022-09-22T16:34:51.152Z,54.65
2022-09-22T16:38:13.772Z,54.75
2022-09-22T16:41:36.382Z,54.84
2022-09-22T16:44:59.646Z,54.99
2022-09-22T16:48:22.608Z,55.15
2022-09-22T16:51:48.161Z,55.43
2022-09-22T16:55:10.990Z,55.46
2022-09-22T16:58:33.530Z,55.72
2022-09-22T17:01:56.363Z,55.94
2022-09-22T17:05:19.476Z,56.13
2022-09-22T17:08:43.257Z,56.33
2022-09-22T17:12:10.342Z,56.41
2022-09-22T17:15:35.088Z,56.69
2022-09-22T17:18:59.316Z,56.90
2022-09-22T17:22:23.565Z,57.12
2022-09-22T17:25:46.286Z,57.32
2022-09-22T17:29:10.274Z,57.52
2022-09-22T17:32:32.691Z,57.82
2022-09-22T17:35:58.677Z,58.03
2022-09-22T17:39:21.693Z,58.28
2022-09-22T17:42:44.140Z,58.23
2022-09-22T17:46:07.579Z,58.63
2022-09-22T17:49:48.325Z,59.02
2022-09-22T17:53:29.441Z,59.02
2022-09-22T17:56:52.109Z,59.31
2022-09-22T18:00:15.895Z,59.72
2022-09-22T18:03:38.337Z,59.72
2022-09-22T18:07:02.804Z,60.02
2022-09-22T18:10:31.528Z,60.52
2022-09-22T18:13:55.696Z,60.75
2022-09-22T18:17:20.873Z,60.92
2022-09-22T18:20:46.244Z,61.08
2022-09-22T18:24:08.909Z,61.18
2022-09-22T18:27:31.719Z,61.07
2022-09-22T18:30:54.627Z,61.43
2022-09-22T18:34:17.294Z,61.49
2022-09-22T18:37:40.382Z,61.58
2022-09-22T18:41:03.175Z,61.67
2022-09-22T18:44:27.524Z,62.21
2022-09-22T18:47:51.423Z,62.30
2022-09-22T18:51:17.393Z,62.76
2022-09-22T18:54:39.864Z,63.12
2022-09-22T18:58:02.640Z,63.54
2022-09-22T19:01:25.249Z,63.78
2022-09-22T19:04:48.015Z,64.02
2022-09-22T19:08:10.587Z,64.22
2022-09-22T19:11:34.439Z,64.66
2022-09-22T19:15:01.325Z,64.79
2022-09-22T19:18:24.622Z,64.69
2022-09-22T19:21:49.597Z,64.56
2022-09-22T19:25:12.322Z,64.50
2022-09-22T19:28:34.839Z,64.55
2022-09-22T19:31:57.803Z,64.56
2022-09-22T19:35:20.682Z,64.82
2022-09-22T19:38:43.163Z,65.06
2022-09-22T19:42:06.514Z,65.47
2022-09-22T19:45:29.855Z,66.35
2022-09-22T19:48:52.535Z,66.87
2022-09-22T19:52:15.713Z,67.16
2022-09-22T19:55:39.147Z,67.40
2022-09-22T19:59:01.895Z,67.71
2022-09-22T20:02:24.923Z,67.84
2022-09-22T20:08:32.378Z,67.87
2022-09-22T20:12:01.352Z,67.67
2022-09-22T20:18:53.419Z,67.96
2022-09-22T20:22:25.326Z,67.85
2022-09-22T20:25:53.219Z,67.88
2022-09-22T20:29:20.994Z,67.96
2022-09-22T20:32:47.996Z,68.20
2022-09-22T20:36:15.355Z,68.45
2022-09-22T20:39:43.060Z,69.05
2022-09-22T20:43:11.960Z,69.19
2022-09-22T20:46:41.224Z,69.35
2022-09-22T20:50:11.966Z,69.55
2022-09-22T20:53:40.544Z,69.71
2022-09-22T20:57:07.992Z,69.56
2022-09-22T21:00:35.114Z,69.68
2022-09-22T21:04:02.629Z,69.86
2022-09-22T21:07:32.081Z,70.00
2022-09-22T21:10:58.989Z,70.47
2022-09-22T21:14:26.323Z,70.53
2022-09-22T21:17:53.885Z,70.66
2022-09-22T21:21:22.893Z,70.22
2022-09-22T21:24:50.086Z,69.88
2022-09-22T21:28:17.057Z,69.32
2022-09-22T21:31:43.869Z,69.39
2022-09-22T21:35:16.620Z,69.49
2022-09-22T21:38:45.293Z,69.81
2022-09-22T21:42:12.177Z,69.73
2022-09-22T21:45:38.934Z,69.36
2022-09-22T21:49:06.884Z,69.83
2022-09-22T21:52:33.780Z,70.30
2022-09-22T21:56:03.875Z,70.92
2022-09-22T21:59:31.383Z,71.18
2022-09-22T22:03:15.564Z,71.16
2022-09-22T22:06:44.599Z,70.65
2022-09-22T22:10:13.819Z,70.87
2022-09-22T22:13:42.042Z,71.06
2022-09-22T22:17:08.904Z,71.05
2022-09-22T22:20:36.544Z,71.00
2022-09-22T22:24:19.837Z,71.24
2022-09-22T22:27:46.945Z,71.45
2022-09-22T22:31:15.559Z,71.37
2022-09-22T22:34:43.382Z,71.70
2022-09-22T22:38:10.397Z,71.86
2022-09-22T22:41:37.815Z,72.06
2022-09-22T22:45:05.388Z,72.22
2022-09-22T22:48:32.553Z,72.25
